Time;durP1;ratioP1;P1;durP2;ratioP2;P2;SDS_P1;SDS_P2;PMS_P1;PMS_P2;Temp;Humidity;BMP_temperature;BMP_pressure;BME280_temperature;BME280_humidity;BME280_pressure;Samples;Min_cycle;Max_cycle;Signal;HPM_P1;HPM_P2
2023/12/09 00:01:43;;;;;;;10.90;8.80;;;;;;;21.51;31.10;101360.73;103229;1296;61221;-82
2023/12/09 00:04:09;;;;;;;11.30;8.60;;;;;;;21.52;31.03;101364.11;103047;1295;72437;-82
2023/12/09 00:06:35;;;;;;;12.40;8.60;;;;;;;21.52;31.14;101363.91;103045;1296;61400;-81
2023/12/09 00:09:00;;;;;;;10.90;8.70;;;;;;;21.52;31.05;101367.85;103047;1296;61406;-82
2023/12/09 00:11:26;;;;;;;10.80;8.40;;;;;;;21.53;31.11;101374.08;103275;1296;61384;-81
2023/12/09 00:13:52;;;;;;;10.70;8.60;;;;;;;21.53;31.06;101371.92;102943;1298;61390;-81
2023/12/09 00:16:21;;;;;;;10.60;8.60;;;;;;;21.52;31.09;101371.79;103023;1296;61412;-81
2023/12/09 00:18:47;;;;;;;11.60;8.50;;;;;;;21.53;31.06;101372.29;103094;1296;74363;-81
2023/12/09 00:21:12;;;;;;;10.50;8.20;;;;;;;21.53;31.17;101371.38;103249;1298;61463;-82
2023/12/09 00:23:38;;;;;;;11.90;8.60;;;;;;;21.54;31.09;101372.77;103107;1296;61445;-82
2023/12/09 00:26:04;;;;;;;11.80;8.80;;;;;;;21.53;31.12;101375.14;103059;1298;61752;-82
2023/12/09 00:28:29;;;;;;;11.10;8.10;;;;;;;21.53;30.99;101375.48;102954;1298;61396;-82
2023/12/09 00:30:55;;;;;;;12.00;8.50;;;;;;;21.53;31.07;101377.63;103019;1301;62158;-82
2023/12/09 00:33:20;;;;;;;10.60;8.30;;;;;;;21.53;31.14;101381.56;102994;1296;62198;-82
2023/12/09 00:35:46;;;;;;;10.60;8.20;;;;;;;21.54;31.07;101380.30;103164;1296;61375;-82
2023/12/09 00:38:12;;;;;;;10.90;8.60;;;;;;;21.54;30.95;101378.51;103091;1298;61841;-82
2023/12/09 00:40:37;;;;;;;10.50;8.30;;;;;;;21.54;31.11;101376.52;102994;1298;61460;-82
2023/12/09 00:43:03;;;;;;;10.40;8.50;;;;;;;21.54;31.01;101380.44;103275;1296;61415;-82
2023/12/09 00:45:29;;;;;;;11.10;8.90;;;;;;;21.54;31.02;101379.55;103110;1296;61333;-82
2023/12/09 00:47:54;;;;;;;11.40;9.30;;;;;;;21.55;30.95;101381.63;103130;1296;61480;-82
2023/12/09 00:50:20;;;;;;;10.90;8.20;;;;;;;21.55;31.03;101384.00;103194;1300;61432;-82
2023/12/09 00:52:46;;;;;;;11.10;8.70;;;;;;;21.55;30.92;101384.31;103251;1298;61523;-82
2023/12/09 00:55:11;;;;;;;11.90;8.10;;;;;;;21.55;31.04;101386.48;103272;1298;62281;-82
2023/12/09 00:57:37;;;;;;;11.20;9.00;;;;;;;21.56;31.05;101383.77;103061;1301;61336;-82
2023/12/09 01:00:08;;;;;;;11.00;8.70;;;;;;;21.56;30.94;101379.99;103125;1298;61431;-81
2023/12/09 01:02:34;;;;;;;11.20;8.50;;;;;;;21.56;31.06;101382.33;103354;1296;74548;-81
2023/12/09 01:05:00;;;;;;;10.60;8.50;;;;;;;21.55;30.94;101378.04;103084;1296;61486;-81
2023/12/09 01:07:25;;;;;;;10.10;7.90;;;;;;;21.56;30.92;101379.26;103054;1296;61316;-81
2023/12/09 01:09:51;;;;;;;10.60;8.30;;;;;;;21.56;30.98;101380.86;103145;1296;61399;-81
2023/12/09 01:12:17;;;;;;;10.80;8.40;;;;;;;21.56;30.94;101381.75;103033;1296;61384;-81
2023/12/09 01:14:43;;;;;;;10.60;8.30;;;;;;;21.56;30.96;101381.95;103261;1298;61420;-81
2023/12/09 01:17:08;;;;;;;10.90;8.80;;;;;;;21.56;30.96;101383.90;102995;1298;61237;-81
2023/12/09 01:19:34;;;;;;;11.40;8.40;;;;;;;21.56;31.08;101385.50;103052;1296;61336;-81
2023/12/09 01:22:00;;;;;;;10.30;8.50;;;;;;;21.57;31.01;101389.79;103134;1295;61371;-81
2023/12/09 01:24:25;;;;;;;11.70;8.70;;;;;;;21.57;30.92;101390.87;103050;1298;61420;-82
2023/12/09 01:26:51;;;;;;;10.10;8.00;;;;;;;21.57;30.99;101396.92;103227;1298;61413;-81
2023/12/09 01:29:17;;;;;;;10.10;8.30;;;;;;;21.57;31.00;101399.61;103221;1298;61390;-81
2023/12/09 01:31:42;;;;;;;10.50;8.10;;;;;;;21.57;30.95;101391.20;103207;1298;61381;-82
2023/12/09 01:34:08;;;;;;;11.10;8.40;;;;;;;21.57;30.90;101384.91;103109;1298;61400;-81
2023/12/09 01:36:34;;;;;;;10.80;8.00;;;;;;;21.58;31.04;101383.09;103155;1296;61983;-81
2023/12/09 01:38:59;;;;;;;10.50;8.30;;;;;;;21.57;30.87;101381.67;103025;1298;61327;-82
2023/12/09 01:41:27;;;;;;;10.80;8.10;;;;;;;21.58;30.91;101384.73;103127;1296;62091;-82
2023/12/09 01:43:53;;;;;;;11.80;8.50;;;;;;;21.58;31.01;101388.30;103003;1298;61314;-82
2023/12/09 01:46:18;;;;;;;10.60;8.60;;;;;;;21.58;30.87;101391.52;103164;1301;61418;-82
2023/12/09 01:48:44;;;;;;;13.20;9.10;;;;;;;21.58;30.98;101387.18;103092;1296;62851;-81
2023/12/09 01:51:10;;;;;;;11.00;8.80;;;;;;;21.58;30.84;101387.70;103277;1298;62099;-81
2023/12/09 01:53:36;;;;;;;10.60;8.70;;;;;;;21.59;30.84;101383.56;103216;1298;61506;-81
2023/12/09 01:56:08;;;;;;;10.00;8.30;;;;;;;21.59;30.83;101386.22;102970;1298;61492;-82
2023/12/09 01:58:35;;;;;;;11.20;8.70;;;;;;;21.59;30.92;101385.55;102995;1299;74224;-81
2023/12/09 02:01:02;;;;;;;10.40;8.60;;;;;;;21.59;30.87;101384.45;103313;1298;61427;-81
2023/12/09 02:03:31;;;;;;;12.10;8.80;;;;;;;21.59;30.88;101383.37;103180;1295;61227;-81
2023/12/09 02:05:57;;;;;;;11.60;8.20;;;;;;;21.59;30.80;101382.27;103062;1301;72434;-81
2023/12/09 02:08:23;;;;;;;11.40;8.70;;;;;;;21.59;30.90;101379.93;103105;1298;61389;-81
2023/12/09 02:10:59;;;;;;;10.30;8.20;;;;;;;21.60;30.87;101384.92;103141;1296;61386;-81
2023/12/09 02:13:29;;;;;;;12.20;8.60;;;;;;;21.60;30.83;101383.31;103066;1296;61416;-81
2023/12/09 02:16:04;;;;;;;10.40;8.40;;;;;;;21.59;30.93;101382.96;103345;1295;72521;-81
2023/12/09 02:18:30;;;;;;;11.00;8.80;;;;;;;21.60;30.83;101380.27;103104;1298;74439;-81
2023/12/09 02:20:55;;;;;;;10.00;8.10;;;;;;;21.60;30.76;101384.90;103083;1298;61483;-81
2023/12/09 02:23:21;;;;;;;11.50;8.90;;;;;;;21.60;30.87;101386.16;103077;1298;61764;-83
2023/12/09 02:25:49;;;;;;;10.10;8.30;;;;;;;21.61;30.86;101387.20;103093;1300;61362;-82
2023/12/09 02:28:19;;;;;;;10.60;7.90;;;;;;;21.60;30.80;101386.33;103279;1298;61377;-81
2023/12/09 02:31:18;;;;;;;11.10;8.30;;;;;;;21.61;30.79;101382.56;103017;1299;62834;-81
2023/12/09 02:33:44;;;;;;;10.20;8.20;;;;;;;21.60;30.88;101376.30;103122;1298;61416;-82
2023/12/09 02:36:11;;;;;;;10.60;8.50;;;;;;;21.60;30.88;101374.89;103195;1298;61804;-81
2023/12/09 02:38:37;;;;;;;11.90;8.70;;;;;;;21.60;30.92;101374.70;103140;1294;61409;-81
2023/12/09 02:41:03;;;;;;;11.40;8.70;;;;;;;21.61;30.69;101376.27;103060;1295;61397;-81
2023/12/09 02:43:29;;;;;;;11.10;8.00;;;;;;;21.61;30.77;101375.56;103306;1296;61320;-83
2023/12/09 02:45:55;;;;;;;10.30;8.20;;;;;;;21.61;30.70;101374.84;103174;1299;61435;-82
2023/12/09 02:48:22;;;;;;;12.50;8.50;;;;;;;21.61;30.65;101367.14;103091;1298;61870;-83
2023/12/09 02:50:49;;;;;;;10.70;8.70;;;;;;;21.61;30.80;101374.10;103036;1298;61429;-82
2023/12/09 02:53:15;;;;;;;10.10;8.30;;;;;;;21.62;30.72;101374.78;103114;1301;61391;-81
2023/12/09 02:55:40;;;;;;;9.90;8.30;;;;;;;21.62;30.70;101371.04;103000;1296;61409;-81
2023/12/09 02:58:06;;;;;;;10.00;8.30;;;;;;;21.62;30.79;101370.64;103144;1299;62323;-81
2023/12/09 03:00:37;;;;;;;12.30;8.30;;;;;;;21.62;30.76;101367.44;103138;1295;61423;-82
2023/12/09 03:03:02;;;;;;;10.90;8.40;;;;;;;21.62;30.77;101363.64;103071;1296;61366;-81
2023/12/09 03:05:28;;;;;;;11.80;8.80;;;;;;;21.62;30.71;101365.47;103071;1298;61863;-81
2023/12/09 03:07:54;;;;;;;11.10;8.50;;;;;;;21.63;30.80;101366.86;103075;1301;61381;-82
2023/12/09 03:10:19;;;;;;;13.20;8.30;;;;;;;21.63;30.84;101363.61;103210;1296;61409;-81
2023/12/09 03:12:45;;;;;;;9.80;8.00;;;;;;;21.63;30.79;101365.94;103220;1298;61438;-81
2023/12/09 03:15:11;;;;;;;11.60;8.60;;;;;;;21.63;30.78;101365.25;103125;1296;61352;-81
2023/12/09 03:17:36;;;;;;;12.00;8.50;;;;;;;21.63;30.84;101365.04;103201;1298;61410;-81
2023/12/09 03:20:03;;;;;;;10.90;8.40;;;;;;;21.63;30.72;101362.33;103036;1295;61553;-81
2023/12/09 03:22:29;;;;;;;9.30;7.50;;;;;;;21.64;30.83;101359.44;103311;1298;59433;-81
2023/12/09 03:24:55;;;;;;;9.80;8.00;;;;;;;21.64;30.73;101355.48;103085;1296;61558;-81
2023/12/09 03:27:21;;;;;;;10.90;8.30;;;;;;;21.64;30.77;101350.48;103182;1298;61160;-81
2023/12/09 03:29:46;;;;;;;11.10;8.70;;;;;;;21.64;30.76;101348.14;103226;1296;61459;-81
2023/12/09 03:32:12;;;;;;;9.70;7.70;;;;;;;21.64;30.78;101348.30;103529;1298;74493;-81
2023/12/09 03:34:37;;;;;;;11.40;8.20;;;;;;;21.65;30.80;101351.14;103296;1298;61428;-81
2023/12/09 03:37:03;;;;;;;10.80;8.20;;;;;;;21.65;30.69;101349.17;103327;1296;61351;-81
2023/12/09 03:39:29;;;;;;;9.90;8.30;;;;;;;21.65;30.68;101353.98;103122;1296;61464;-81
2023/12/09 03:41:55;;;;;;;10.50;8.30;;;;;;;21.65;30.86;101350.20;103047;1298;61394;-81
2023/12/09 03:44:21;;;;;;;10.00;7.70;;;;;;;21.66;30.74;101346.58;103092;1299;61429;-81
2023/12/09 03:46:46;;;;;;;10.50;8.20;;;;;;;21.67;30.64;101344.94;103211;1296;61439;-81
2023/12/09 03:49:12;;;;;;;9.60;7.80;;;;;;;21.66;30.62;101343.86;103149;1296;61406;-82
2023/12/09 03:51:37;;;;;;;11.90;8.90;;;;;;;21.67;30.66;101345.98;103255;1295;61383;-81
2023/12/09 03:54:03;;;;;;;9.70;7.80;;;;;;;21.67;30.55;101349.39;103085;1294;61272;-81
2023/12/09 03:56:29;;;;;;;9.30;7.70;;;;;;;21.67;30.74;101346.14;103179;1294;61436;-82
2023/12/09 03:58:55;;;;;;;11.50;8.00;;;;;;;21.67;30.62;101341.84;103180;1296;61291;-81
2023/12/09 04:01:24;;;;;;;9.50;8.20;;;;;;;21.67;30.69;101339.52;103263;1298;61409;-82
2023/12/09 04:03:53;;;;;;;10.00;7.90;;;;;;;21.67;30.82;101343.09;103090;1296;72556;-81
2023/12/09 04:06:19;;;;;;;9.60;7.60;;;;;;;21.67;30.66;101348.11;103104;1296;74335;-81
2023/12/09 04:08:44;;;;;;;10.30;7.80;;;;;;;21.68;30.63;101354.53;103114;1296;61527;-81
2023/12/09 04:11:10;;;;;;;10.00;7.80;;;;;;;21.67;30.66;101356.18;103019;1296;61305;-81
2023/12/09 04:13:36;;;;;;;11.10;7.90;;;;;;;21.67;30.70;101358.66;103016;1298;61492;-81
2023/12/09 04:16:02;;;;;;;11.40;8.10;;;;;;;21.68;30.71;101359.35;103140;1296;61358;-81
2023/12/09 04:18:28;;;;;;;11.30;8.10;;;;;;;21.67;30.73;101356.33;103242;1295;61858;-81
2023/12/09 04:20:54;;;;;;;10.00;7.30;;;;;;;21.68;30.61;101361.33;103120;1296;61451;-82
2023/12/09 04:23:19;;;;;;;10.50;7.70;;;;;;;21.68;30.77;101364.34;103138;1296;61422;-81
2023/12/09 04:25:45;;;;;;;9.60;7.30;;;;;;;21.67;30.68;101363.85;103017;1298;61421;-82
2023/12/09 04:28:19;;;;;;;10.30;7.60;;;;;;;21.68;30.69;101365.79;103091;1296;62321;-82
2023/12/09 04:30:45;;;;;;;9.60;7.30;;;;;;;21.68;30.77;101362.73;103092;1298;61317;-82
2023/12/09 04:33:11;;;;;;;9.60;7.50;;;;;;;21.68;30.71;101359.52;103265;1296;61297;-82
2023/12/09 04:35:36;;;;;;;9.60;7.30;;;;;;;21.68;30.78;101362.73;103095;1298;61405;-82
2023/12/09 04:38:03;;;;;;;10.60;7.30;;;;;;;21.68;30.76;101362.92;103093;1296;61428;-82
2023/12/09 04:40:29;;;;;;;8.90;6.90;;;;;;;21.68;30.78;101361.65;103411;1295;61307;-82
2023/12/09 04:42:54;;;;;;;9.40;7.30;;;;;;;21.68;30.61;101356.29;103038;1296;61412;-82
2023/12/09 04:45:20;;;;;;;10.60;7.40;;;;;;;21.68;30.61;101355.56;103158;1296;61414;-82
2023/12/09 04:47:46;;;;;;;9.70;7.60;;;;;;;21.68;30.73;101360.58;103055;1296;72306;-82
2023/12/09 04:50:11;;;;;;;9.30;7.20;;;;;;;21.69;30.66;101362.88;103012;1296;61380;-83
2023/12/09 04:52:37;;;;;;;10.30;7.00;;;;;;;21.69;30.56;101364.83;103052;1298;61377;-82
2023/12/09 04:55:03;;;;;;;9.50;6.90;;;;;;;21.69;30.68;101363.39;103159;1296;62100;-82
2023/12/09 04:57:32;;;;;;;9.90;6.80;;;;;;;21.69;30.58;101363.55;103163;1301;61403;-83
2023/12/09 04:59:57;;;;;;;8.40;7.00;;;;;;;21.69;30.74;101367.13;103181;1299;61199;-83
2023/12/09 05:02:23;;;;;;;9.80;7.30;;;;;;;21.70;30.73;101365.67;103065;1298;61509;-83
2023/12/09 05:04:48;;;;;;;9.20;6.90;;;;;;;21.70;30.71;101372.11;103231;1299;61358;-83
2023/12/09 05:07:14;;;;;;;11.70;7.70;;;;;;;21.70;30.73;101371.56;103415;1299;62050;-83
2023/12/09 05:09:42;;;;;;;10.30;7.50;;;;;;;21.70;30.68;101368.88;103210;1298;72306;-83
2023/12/09 05:12:14;;;;;;;9.00;6.80;;;;;;;21.71;30.71;101372.95;103123;1298;74200;-83
2023/12/09 05:14:39;;;;;;;10.60;6.80;;;;;;;21.71;30.70;101377.42;102980;1298;61490;-83
2023/12/09 05:17:05;;;;;;;8.80;6.70;;;;;;;21.71;30.68;101377.23;103310;1298;63011;-82
2023/12/09 05:19:31;;;;;;;8.90;6.90;;;;;;;21.71;30.63;101375.77;103076;1299;61474;-83
2023/12/09 05:21:57;;;;;;;8.60;7.10;;;;;;;21.71;30.67;101381.31;103037;1298;61206;-83
2023/12/09 05:24:22;;;;;;;9.10;7.10;;;;;;;21.72;30.61;101387.92;103220;1301;61455;-82
2023/12/09 05:26:48;;;;;;;9.30;7.30;;;;;;;21.72;30.68;101391.83;103488;1301;61426;-83
2023/12/09 05:29:13;;;;;;;9.00;6.70;;;;;;;21.73;30.68;101390.55;103282;1296;61357;-80
2023/12/09 05:31:40;;;;;;;9.70;7.40;;;;;;;21.73;30.64;101392.35;103040;1294;61480;-83
2023/12/09 05:34:06;;;;;;;10.10;7.10;;;;;;;21.73;30.69;101391.25;103179;1296;61432;-83
2023/12/09 05:36:32;;;;;;;9.40;6.90;;;;;;;21.74;30.67;101392.65;103225;1296;61406;-83
2023/12/09 05:38:57;;;;;;;9.50;6.60;;;;;;;21.73;30.63;101400.73;103191;1296;62462;-83
2023/12/09 05:41:23;;;;;;;8.50;6.60;;;;;;;21.73;30.69;101402.69;103144;1296;61377;-83
2023/12/09 05:43:48;;;;;;;9.90;6.80;;;;;;;21.74;30.62;101407.51;103144;1298;61566;-83
2023/12/09 05:46:19;;;;;;;9.00;6.70;;;;;;;21.73;30.57;101404.50;103079;1296;73555;-83
2023/12/09 05:48:44;;;;;;;9.20;6.40;;;;;;;21.73;30.63;101403.94;103339;1295;61423;-83
2023/12/09 05:51:10;;;;;;;9.20;7.20;;;;;;;21.74;30.65;101409.46;103319;1296;61403;-81
2023/12/09 05:53:36;;;;;;;8.40;7.00;;;;;;;21.74;30.53;101415.19;103152;1296;61367;-80
2023/12/09 05:56:01;;;;;;;9.20;6.40;;;;;;;21.74;30.60;101421.30;103155;1295;61394;-81
2023/12/09 05:58:27;;;;;;;8.20;6.30;;;;;;;21.74;30.48;101423.43;103212;1296;61431;-81
2023/12/09 06:00:53;;;;;;;8.10;6.70;;;;;;;21.74;30.65;101423.79;103281;1298;61423;-82
2023/12/09 06:03:18;;;;;;;10.00;7.00;;;;;;;21.74;30.53;101427.91;103074;1296;61482;-82
2023/12/09 06:05:44;;;;;;;9.00;6.90;;;;;;;21.74;30.72;101430.58;103062;1295;61502;-82
2023/12/09 06:08:10;;;;;;;10.40;7.00;;;;;;;21.74;30.57;101436.66;103017;1296;61475;-81
2023/12/09 06:10:35;;;;;;;11.30;7.10;;;;;;;21.74;30.65;101441.14;103416;1295;61332;-81
2023/12/09 06:13:01;;;;;;;9.20;6.90;;;;;;;21.75;30.69;101444.36;103123;1296;61375;-81
2023/12/09 06:15:27;;;;;;;8.90;6.30;;;;;;;21.75;30.60;101446.69;103356;1294;61441;-82
2023/12/09 06:17:52;;;;;;;9.90;7.00;;;;;;;21.75;30.66;101454.02;103239;1296;71453;-81
2023/12/09 06:20:18;;;;;;;8.20;6.00;;;;;;;21.75;30.48;101455.44;103238;1296;61406;-81
2023/12/09 06:22:44;;;;;;;8.50;6.60;;;;;;;21.74;30.63;101455.84;102988;1296;61972;-82
2023/12/09 06:25:09;;;;;;;9.40;6.70;;;;;;;21.74;30.61;101457.80;103295;1296;61389;-81
2023/12/09 06:27:36;;;;;;;10.80;6.50;;;;;;;21.75;30.59;101461.73;103173;1298;61406;-82
2023/12/09 06:30:01;;;;;;;9.40;6.30;;;;;;;21.75;30.51;101460.79;103082;1295;61855;-81
2023/12/09 06:32:27;;;;;;;9.00;6.70;;;;;;;21.75;30.49;101462.77;103177;1296;74506;-81
2023/12/09 06:34:53;;;;;;;8.50;6.70;;;;;;;21.75;30.59;101461.86;103050;1296;61452;-81
2023/12/09 06:37:18;;;;;;;8.70;6.30;;;;;;;21.75;30.60;101464.38;103119;1296;61854;-81
2023/12/09 06:39:44;;;;;;;9.20;6.60;;;;;;;21.75;30.64;101465.98;103150;1298;61400;-81
2023/12/09 06:42:10;;;;;;;8.90;6.40;;;;;;;21.76;30.66;101467.93;102949;1292;61323;-81
2023/12/09 06:44:35;;;;;;;9.20;6.30;;;;;;;21.76;30.58;101481.17;103078;1293;62401;-81
2023/12/09 06:47:01;;;;;;;8.90;6.00;;;;;;;21.76;30.57;101481.56;103199;1300;61333;-81
2023/12/09 06:49:27;;;;;;;8.50;6.30;;;;;;;21.75;30.52;101479.79;103277;1293;61275;-81
2023/12/09 06:51:52;;;;;;;8.60;6.40;;;;;;;21.76;30.71;101480.27;103247;1292;61562;-81
2023/12/09 06:54:18;;;;;;;9.40;6.40;;;;;;;21.76;30.56;101487.80;103452;1293;61290;-81
2023/12/09 06:56:44;;;;;;;9.50;6.70;;;;;;;21.77;30.65;101493.50;103244;1292;62113;-81
2023/12/09 06:59:10;;;;;;;8.10;6.40;;;;;;;21.76;30.56;101500.52;103368;1298;61432;-81
2023/12/09 07:01:43;;;;;;;8.00;6.20;;;;;;;21.77;30.55;101506.77;103551;1293;61406;-81
2023/12/09 07:04:09;;;;;;;9.00;6.60;;;;;;;21.76;30.46;101501.39;103206;1293;61294;-82
2023/12/09 07:06:35;;;;;;;7.50;5.70;;;;;;;21.77;30.49;101507.63;103249;1293;74566;-82
2023/12/09 07:09:01;;;;;;;9.00;6.40;;;;;;;21.77;30.62;101510.84;103460;1293;62565;-82
2023/12/09 07:11:27;;;;;;;9.50;6.80;;;;;;;21.78;30.51;101507.97;103144;1293;61502;-82
2023/12/09 07:13:54;;;;;;;8.30;6.20;;;;;;;21.78;30.59;101509.58;103536;1298;61396;-82
2023/12/09 07:16:20;;;;;;;9.90;6.80;;;;;;;21.78;30.70;101508.13;103353;1293;61372;-82
2023/12/09 07:18:46;;;;;;;8.60;6.60;;;;;;;21.78;30.58;101509.73;103380;1293;61397;-82
2023/12/09 07:21:13;;;;;;;8.60;6.40;;;;;;;21.79;30.48;101508.61;103402;1295;61266;-82
2023/12/09 07:23:38;;;;;;;7.90;6.10;;;;;;;21.79;30.52;101506.29;103130;1293;61347;-83
2023/12/09 07:26:04;;;;;;;8.10;6.10;;;;;;;21.79;30.57;101506.29;103140;1293;61411;-83
2023/12/09 07:28:30;;;;;;;10.30;6.50;;;;;;;21.79;30.42;101506.64;103421;1293;61326;-83
2023/12/09 07:30:56;;;;;;;8.30;6.30;;;;;;;21.79;30.44;101507.02;103241;1294;61276;-83
2023/12/09 07:33:21;;;;;;;8.60;6.20;;;;;;;21.79;30.55;101506.46;103497;1293;61488;-83
2023/12/09 07:35:47;;;;;;;8.30;6.40;;;;;;;21.79;30.38;101508.02;102990;1293;275453;-83
2023/12/09 07:38:13;;;;;;;9.90;6.30;;;;;;;21.79;30.54;101508.05;103093;1293;61409;-82
2023/12/09 07:40:38;;;;;;;8.40;6.00;;;;;;;21.79;30.52;101504.29;103238;1293;61351;-82
2023/12/09 07:43:04;;;;;;;8.20;6.30;;;;;;;21.79;30.56;101501.40;103620;1293;61483;-83
2023/12/09 07:45:30;;;;;;;8.60;6.60;;;;;;;21.79;30.64;101502.85;103200;1293;61356;-82
2023/12/09 07:47:56;;;;;;;9.70;6.40;;;;;;;21.79;30.61;101505.71;103133;1293;61415;-82
2023/12/09 07:50:22;;;;;;;9.90;6.90;;;;;;;21.80;30.57;101511.58;103336;1293;61374;-82
2023/12/09 07:52:47;;;;;;;8.40;6.70;;;;;;;21.80;30.43;101511.26;103141;1293;61422;-82
2023/12/09 07:55:13;;;;;;;9.00;6.10;;;;;;;21.79;30.50;101512.52;103163;1293;61314;-82
2023/12/09 07:57:40;;;;;;;9.50;6.50;;;;;;;21.79;30.41;101511.24;103171;1293;61384;-82
2023/12/09 08:00:07;;;;;;;8.40;6.20;;;;;;;21.80;30.47;101509.81;103083;1293;61393;-82
2023/12/09 08:02:33;;;;;;;9.40;6.50;;;;;;;21.79;30.43;101505.70;103239;1293;61473;-82
2023/12/09 08:04:58;;;;;;;7.80;5.80;;;;;;;21.80;30.51;101507.66;103204;1293;61831;-82
2023/12/09 08:07:24;;;;;;;9.60;6.30;;;;;;;21.80;30.42;101506.57;103423;1292;61403;-83
2023/12/09 08:09:49;;;;;;;8.00;6.20;;;;;;;21.79;30.37;101506.08;103497;1298;61575;-82
2023/12/09 08:12:15;;;;;;;9.20;6.50;;;;;;;21.79;30.51;101507.86;103430;1292;61406;-82
2023/12/09 08:14:41;;;;;;;8.80;6.60;;;;;;;21.80;30.53;101512.48;103365;1293;61406;-82
2023/12/09 08:17:07;;;;;;;8.00;6.40;;;;;;;21.80;30.47;101510.16;103119;1293;61309;-83
2023/12/09 08:19:33;;;;;;;9.00;6.40;;;;;;;21.80;30.49;101514.23;103400;1293;61368;-83
2023/12/09 08:21:59;;;;;;;9.30;6.60;;;;;;;21.79;30.50;101516.63;103540;1293;61327;-82
2023/12/09 08:24:25;;;;;;;8.40;5.90;;;;;;;21.80;30.41;101522.88;103383;1293;74379;-82
2023/12/09 08:26:51;;;;;;;8.60;5.80;;;;;;;21.80;30.45;101522.16;103077;1292;61332;-82
2023/12/09 08:29:17;;;;;;;8.10;6.10;;;;;;;21.80;30.44;101523.95;103467;1293;61431;-82
2023/12/09 08:31:46;;;;;;;8.10;6.10;;;;;;;21.80;30.45;101528.44;103390;1293;61419;-82
2023/12/09 08:34:13;;;;;;;8.10;6.20;;;;;;;21.79;30.51;101523.63;103303;1293;74563;-82
2023/12/09 08:36:39;;;;;;;8.70;6.10;;;;;;;21.80;30.43;101516.07;103289;1293;61333;-82
2023/12/09 08:39:04;;;;;;;9.30;6.30;;;;;;;21.80;30.46;101518.02;103276;1296;61737;-82
2023/12/09 08:41:37;;;;;;;8.60;6.00;;;;;;;21.80;30.36;101518.40;103300;1293;71232;-82
2023/12/09 08:44:03;;;;;;;7.40;5.50;;;;;;;21.80;30.44;101513.73;103485;1293;61329;-82
2023/12/09 08:46:30;;;;;;;9.20;6.30;;;;;;;21.80;30.36;101501.38;103320;1293;61400;-83
2023/12/09 08:48:56;;;;;;;7.90;5.80;;;;;;;21.80;30.35;101494.57;103274;1292;59407;-82
2023/12/09 08:51:22;;;;;;;8.60;6.30;;;;;;;21.80;30.40;101487.95;103131;1299;61409;-82
2023/12/09 08:53:49;;;;;;;8.00;5.90;;;;;;;21.79;30.50;101489.76;103213;1293;61426;-82
2023/12/09 08:56:15;;;;;;;7.90;6.10;;;;;;;21.80;30.45;101488.48;103306;1292;61357;-82
2023/12/09 08:58:40;;;;;;;8.30;6.10;;;;;;;21.80;30.48;101479.70;103341;1293;61339;-83
2023/12/09 09:01:06;;;;;;;8.90;6.00;;;;;;;21.79;30.43;101472.75;103277;1293;61495;-82
2023/12/09 09:03:32;;;;;;;7.70;5.60;;;;;;;21.80;30.46;101468.04;103434;1293;61403;-82
2023/12/09 09:05:58;;;;;;;8.70;5.90;;;;;;;21.80;30.43;101464.12;103238;1293;61310;-82
2023/12/09 09:08:23;;;;;;;8.70;6.10;;;;;;;21.80;30.27;101457.66;103156;1293;61259;-82
2023/12/09 09:10:50;;;;;;;10.10;6.70;;;;;;;21.80;30.38;101459.95;103194;1297;61339;-82
2023/12/09 09:13:16;;;;;;;8.20;6.00;;;;;;;21.80;30.41;101452.27;103156;1293;61899;-82
2023/12/09 09:15:42;;;;;;;8.20;5.80;;;;;;;21.80;30.49;101440.97;103183;1293;61349;-83
2023/12/09 09:18:16;;;;;;;8.20;5.80;;;;;;;21.80;30.55;101442.58;103339;1292;61259;-82
2023/12/09 09:20:44;;;;;;;9.10;5.90;;;;;;;21.80;30.37;101438.48;103318;1292;62316;-82
2023/12/09 09:23:10;;;;;;;9.00;5.90;;;;;;;21.80;30.44;101436.70;103391;1293;72530;-83
2023/12/09 09:25:37;;;;;;;9.30;6.00;;;;;;;21.80;30.44;101432.01;103395;1293;74166;-82
2023/12/09 09:28:03;;;;;;;8.40;5.90;;;;;;;21.80;30.53;101432.74;103349;1293;61349;-83
2023/12/09 09:30:29;;;;;;;8.50;6.00;;;;;;;21.81;30.50;101438.08;103595;1293;61431;-82
2023/12/09 09:32:55;;;;;;;7.40;5.60;;;;;;;21.81;30.37;101440.39;103029;1293;61329;-82
2023/12/09 09:35:20;;;;;;;9.30;6.00;;;;;;;21.80;30.48;101434.86;103166;1293;61355;-82
2023/12/09 09:37:47;;;;;;;9.60;5.90;;;;;;;21.80;30.48;101430.20;103541;1293;61409;-82
2023/12/09 09:40:13;;;;;;;8.50;5.80;;;;;;;21.81;30.39;101426.41;103187;1293;61400;-82
2023/12/09 09:43:21;;;;;;;8.00;5.80;;;;;;;21.81;30.47;101428.02;103076;1293;61429;-82
2023/12/09 09:45:47;;;;;;;7.90;5.90;;;;;;;21.79;30.38;101424.52;103577;1293;73531;-81
2023/12/09 09:48:13;;;;;;;8.00;5.80;;;;;;;21.81;30.37;101423.75;103204;1293;61381;-81
2023/12/09 09:50:41;;;;;;;9.00;6.20;;;;;;;21.80;30.42;101419.30;103518;1293;62218;-81
2023/12/09 09:53:07;;;;;;;8.20;5.60;;;;;;;21.80;30.38;101417.66;103170;1298;72291;-82
2023/12/09 09:55:35;;;;;;;9.60;6.20;;;;;;;21.81;30.49;101413.88;103499;1293;62132;-81
2023/12/09 09:58:05;;;;;;;8.20;5.80;;;;;;;21.81;30.30;101413.13;103312;1292;61355;-82
2023/12/09 10:00:30;;;;;;;7.60;5.40;;;;;;;21.81;30.39;101408.66;103024;1293;61514;-81
2023/12/09 10:02:56;;;;;;;7.80;5.80;;;;;;;21.82;30.38;101398.77;103326;1297;61486;-81
2023/12/09 10:05:22;;;;;;;8.00;5.60;;;;;;;21.81;30.46;101394.32;103268;1293;61404;-81
2023/12/09 10:07:47;;;;;;;8.60;5.60;;;;;;;21.82;30.39;101395.91;103222;1293;61324;-79
2023/12/09 10:10:14;;;;;;;8.50;5.80;;;;;;;21.81;30.31;101392.86;103392;1298;61392;-81
2023/12/09 10:12:40;;;;;;;9.10;6.00;;;;;;;21.81;30.42;101393.41;103151;1296;61374;-81
2023/12/09 10:15:06;;;;;;;7.60;5.10;;;;;;;21.82;30.29;101388.54;103252;1295;61733;-81
2023/12/09 10:17:32;;;;;;;8.20;5.50;;;;;;;21.82;30.36;101383.33;103181;1296;61417;-81
2023/12/09 10:19:58;;;;;;;8.70;6.00;;;;;;;21.82;30.40;101381.75;103174;1299;61342;-81
2023/12/09 10:22:31;;;;;;;7.80;5.60;;;;;;;21.82;30.36;101380.10;103159;1297;61416;-81
2023/12/09 10:24:56;;;;;;;8.10;5.70;;;;;;;21.82;30.27;101379.19;103073;1297;72549;-82
2023/12/09 10:27:22;;;;;;;7.80;5.90;;;;;;;21.82;30.24;101375.96;103155;1296;61556;-83
2023/12/09 10:29:49;;;;;;;8.30;5.70;;;;;;;21.82;30.38;101371.49;103067;1296;61482;-81
2023/12/09 10:32:15;;;;;;;7.60;5.90;;;;;;;21.83;30.34;101367.34;103055;1297;61484;-81
2023/12/09 10:34:41;;;;;;;7.90;5.50;;;;;;;21.82;30.31;101361.80;103075;1296;61203;-81
2023/12/09 10:37:10;;;;;;;8.80;5.70;;;;;;;21.83;30.44;101356.77;103062;1297;63053;-81
2023/12/09 10:39:36;;;;;;;8.40;6.40;;;;;;;21.83;30.45;101349.95;103014;1296;61416;-81
2023/12/09 10:42:05;;;;;;;9.60;6.10;;;;;;;21.83;30.24;101352.45;103086;1297;61509;-82
2023/12/09 10:44:31;;;;;;;9.80;6.00;;;;;;;21.83;30.45;101352.10;103164;1301;72402;-81
2023/12/09 10:46:56;;;;;;;8.70;6.10;;;;;;;21.83;30.34;101356.04;103136;1296;61840;-81
2023/12/09 10:49:22;;;;;;;8.20;5.80;;;;;;;21.83;30.27;101356.58;103097;1297;61405;-81
2023/12/09 10:51:48;;;;;;;9.10;5.70;;;;;;;21.83;30.24;101354.61;103252;1297;61914;-82
2023/12/09 10:54:13;;;;;;;8.50;5.70;;;;;;;21.83;30.35;101351.74;103205;1297;61276;-81
2023/12/09 10:56:39;;;;;;;8.80;5.70;;;;;;;21.83;30.27;101355.66;103320;1295;61511;-81
2023/12/09 10:59:05;;;;;;;8.90;6.00;;;;;;;21.84;30.33;101356.86;103174;1294;72231;-82
2023/12/09 11:01:30;;;;;;;8.10;6.00;;;;;;;21.84;30.44;101353.27;103234;1295;61306;-81
2023/12/09 11:03:57;;;;;;;7.50;5.60;;;;;;;21.84;30.27;101351.69;103289;1296;61515;-80
2023/12/09 11:06:23;;;;;;;9.00;5.90;;;;;;;21.84;30.23;101350.74;103373;1295;61442;-82
2023/12/09 11:08:48;;;;;;;9.90;6.30;;;;;;;21.85;30.30;101348.21;103203;1296;61259;-83
2023/12/09 11:11:14;;;;;;;7.00;5.30;;;;;;;21.85;30.29;101349.98;103187;1294;61314;-83